Time;durP1;ratioP1;P1;durP2;ratioP2;P2;SDS_P1;SDS_P2;PMS_P1;PMS_P2;Temp;Humidity;BMP_temperature;BMP_pressure;BME280_temperature;BME280_humidity;BME280_pressure;Samples;Min_cycle;Max_cycle;Signal;HPM_P1;HPM_P2
2023/05/17 00:00:30;;;;;;;3.70;2.80;;;;;20.90;101238.00;;;;2082488;28;20685;-50
2023/05/17 00:01:30;;;;;;;4.57;3.10;;;;;20.90;101236.00;;;;2080358;28;20635;-51
2023/05/17 00:02:30;;;;;;;4.37;3.10;;;;;20.90;101237.00;;;;2069768;28;20217;-50
2023/05/17 00:03:31;;;;;;;4.27;2.83;;;;;20.90;101244.00;;;;2079846;28;20289;-51
2023/05/17 00:04:32;;;;;;;5.80;2.70;;;;;20.90;101256.00;;;;2076183;28;20233;-50
2023/05/17 00:05:32;;;;;;;3.30;2.50;;;;;20.90;101239.00;;;;2082251;28;20287;-50
2023/05/17 00:06:33;;;;;;;4.40;3.10;;;;;20.90;101239.00;;;;2086327;28;20698;-50
2023/05/17 00:07:34;;;;;;;3.57;2.60;;;;;20.90;101236.00;;;;2073846;28;20758;-50
2023/05/17 00:08:34;;;;;;;4.90;3.17;;;;;20.90;101238.00;;;;2085731;28;20533;-50
2023/05/17 00:09:34;;;;;;;3.20;2.70;;;;;20.90;101233.00;;;;2083838;28;20210;-51
2023/05/17 00:10:35;;;;;;;3.50;2.50;;;;;20.90;101238.00;;;;2079153;28;20241;-51
2023/05/17 00:11:35;;;;;;;2.60;2.40;;;;;20.90;101238.00;;;;2086392;28;20228;-51
2023/05/17 00:12:35;;;;;;;5.00;3.60;;;;;20.90;101232.00;;;;2069638;28;20944;-51
2023/05/17 00:13:36;;;;;;;3.10;2.80;;;;;20.90;101238.00;;;;2080320;28;20891;-50
2023/05/17 00:14:37;;;;;;;4.57;2.67;;;;;20.90;101231.00;;;;2082318;28;20354;-50
2023/05/17 00:15:37;;;;;;;5.43;3.37;;;;;20.90;101230.00;;;;2080954;28;20224;-51
2023/05/17 00:16:38;;;;;;;3.70;2.83;;;;;20.90;101227.00;;;;2085907;28;20697;-51
2023/05/17 00:17:38;;;;;;;4.43;2.60;;;;;20.90;101237.00;;;;2064028;28;21044;-50
2023/05/17 00:18:38;;;;;;;4.10;2.93;;;;;20.90;101238.00;;;;2069590;28;20218;-51
2023/05/17 00:19:38;;;;;;;3.33;2.40;;;;;20.90;101228.00;;;;2069203;28;20337;-50
2023/05/17 00:20:39;;;;;;;5.00;2.97;;;;;20.90;101232.00;;;;2079063;28;20427;-50
2023/05/17 00:21:39;;;;;;;3.33;3.03;;;;;20.90;101235.00;;;;2084422;28;20235;-50
2023/05/17 00:22:42;;;;;;;3.63;2.47;;;;;20.90;101231.00;;;;2066616;28;20303;-51
2023/05/17 00:23:42;;;;;;;4.25;2.70;;;;;20.90;101228.00;;;;2077016;28;20212;-50
2023/05/17 00:24:42;;;;;;;5.43;2.90;;;;;20.90;101229.00;;;;2080661;28;20272;-51
2023/05/17 00:25:43;;;;;;;6.17;3.07;;;;;20.80;101237.00;;;;2082243;28;20225;-50
2023/05/17 00:26:43;;;;;;;3.30;2.50;;;;;20.80;101227.00;;;;2081760;28;20259;-51
2023/05/17 00:27:43;;;;;;;2.57;1.87;;;;;20.90;101227.00;;;;2076517;28;20296;-51
2023/05/17 00:28:44;;;;;;;3.00;2.40;;;;;20.80;101242.00;;;;2087908;28;20209;-50
2023/05/17 00:29:44;;;;;;;2.50;2.30;;;;;20.90;101238.00;;;;2074720;28;20795;-51
2023/05/17 00:30:44;;;;;;;2.93;2.20;;;;;20.80;101230.00;;;;2081341;28;20205;-51
2023/05/17 00:31:45;;;;;;;2.77;2.20;;;;;20.80;101232.00;;;;2083102;28;20270;-50
2023/05/17 00:32:46;;;;;;;3.20;2.27;;;;;20.80;101239.00;;;;2075589;28;20216;-50
2023/05/17 00:33:46;;;;;;;2.72;2.10;;;;;20.80;101238.00;;;;2070935;28;20341;-51
2023/05/17 00:34:47;;;;;;;3.53;2.67;;;;;20.80;101241.00;;;;2073275;28;20225;-51
2023/05/17 00:35:47;;;;;;;5.70;1.90;;;;;20.80;101238.00;;;;2078169;28;20244;-51
2023/05/17 00:36:47;;;;;;;3.10;2.00;;;;;20.80;101236.00;;;;2081951;28;20217;-51
2023/05/17 00:37:48;;;;;;;3.27;2.37;;;;;20.80;101240.00;;;;2070220;28;20691;-50
2023/05/17 00:38:48;;;;;;;4.40;2.60;;;;;20.80;101246.00;;;;2070475;28;20215;-52
2023/05/17 00:39:48;;;;;;;3.57;2.70;;;;;20.80;101242.00;;;;2073359;28;20225;-51
2023/05/17 00:40:49;;;;;;;2.83;2.13;;;;;20.80;101243.00;;;;2076731;28;20654;-51
2023/05/17 00:41:49;;;;;;;3.93;2.40;;;;;20.80;101238.00;;;;2082789;28;20205;-52
2023/05/17 00:42:49;;;;;;;3.57;2.23;;;;;20.80;101238.00;;;;2066222;28;20210;-49
2023/05/17 00:43:50;;;;;;;4.87;2.40;;;;;20.80;101237.00;;;;2072864;28;20213;-50
2023/05/17 00:44:51;;;;;;;3.23;2.17;;;;;20.80;101240.00;;;;2075652;28;20210;-49
2023/05/17 00:45:51;;;;;;;4.20;2.43;;;;;20.80;101226.00;;;;2073742;28;20855;-50
2023/05/17 00:46:51;;;;;;;4.40;2.03;;;;;20.80;101236.00;;;;2073335;28;20667;-52
2023/05/17 00:47:52;;;;;;;4.43;2.77;;;;;20.80;101231.00;;;;2069446;28;20757;-52
2023/05/17 00:48:52;;;;;;;2.90;2.37;;;;;20.80;101229.00;;;;2089410;28;20213;-50
2023/05/17 00:49:52;;;;;;;2.90;1.80;;;;;20.80;101226.00;;;;2083349;28;20209;-52
2023/05/17 00:50:53;;;;;;;6.33;2.23;;;;;20.80;101238.00;;;;2080679;28;20344;-52
2023/05/17 00:51:53;;;;;;;3.03;1.90;;;;;20.80;101230.00;;;;2082345;28;20291;-51
2023/05/17 00:52:54;;;;;;;4.43;2.10;;;;;20.80;101237.00;;;;2065376;28;20217;-52
2023/05/17 00:53:54;;;;;;;4.38;2.10;;;;;20.80;101236.00;;;;2073372;28;20218;-51
2023/05/17 00:54:55;;;;;;;5.70;1.97;;;;;20.80;101235.00;;;;2081323;28;21188;-51
2023/05/17 00:55:55;;;;;;;3.60;2.40;;;;;20.80;101234.00;;;;2077973;28;20338;-52
2023/05/17 00:56:56;;;;;;;3.50;2.27;;;;;20.70;101227.00;;;;2068616;28;20224;-52
2023/05/17 00:57:56;;;;;;;5.10;2.58;;;;;20.80;101234.00;;;;2073351;28;20294;-50
2023/05/17 00:58:57;;;;;;;2.73;2.07;;;;;20.70;101221.00;;;;2085878;28;20258;-50
2023/05/17 00:59:57;;;;;;;2.93;2.03;;;;;20.70;101238.00;;;;2082019;28;20272;-52
2023/05/17 01:00:58;;;;;;;3.20;1.90;;;;;20.70;101240.00;;;;2067259;28;20214;-52
2023/05/17 01:01:58;;;;;;;2.10;1.87;;;;;20.70;101228.00;;;;2068445;28;20213;-52
2023/05/17 01:02:59;;;;;;;1.73;1.60;;;;;20.70;101234.00;;;;2074049;28;20209;-49
2023/05/17 01:03:59;;;;;;;3.27;2.20;;;;;20.70;101232.00;;;;2077025;28;20202;-50
2023/05/17 01:05:00;;;;;;;3.43;2.30;;;;;20.70;101226.00;;;;2072952;28;20217;-51
2023/05/17 01:06:00;;;;;;;3.13;2.27;;;;;20.70;101226.00;;;;2082932;28;20228;-52
2023/05/17 01:07:00;;;;;;;2.63;1.70;;;;;20.70;101227.00;;;;2082541;28;20216;-52
2023/05/17 01:08:01;;;;;;;4.47;2.17;;;;;20.70;101225.00;;;;2080552;28;20231;-52
2023/05/17 01:09:02;;;;;;;2.70;1.90;;;;;20.70;101224.00;;;;2085441;28;20303;-49
2023/05/17 01:10:02;;;;;;;3.00;2.25;;;;;20.70;101223.00;;;;2076036;28;20220;-49
2023/05/17 01:11:05;;;;;;;2.60;1.97;;;;;20.70;101224.00;;;;2079131;28;20231;-52
2023/05/17 01:12:31;;;;;;;3.28;2.20;;;;;20.70;101233.00;;;;2070909;28;20217;-50
2023/05/17 01:13:41;;;;;;;2.85;1.60;;;;;20.70;101232.00;;;;2075177;28;20216;-52
2023/05/17 01:15:06;;;;;;;2.55;2.05;;;;;20.70;101235.00;;;;2071665;28;20236;-52
2023/05/17 01:16:19;;;;;;;3.15;1.85;;;;;20.70;101227.00;;;;2081807;28;20227;-52
2023/05/17 01:17:44;;;;;;;2.45;1.80;;;;;20.70;101235.00;;;;2060000;28;20223;-51
2023/05/17 01:18:47;;;;;;;3.47;1.98;;;;;20.70;101242.00;;;;2074936;28;20216;-52
2023/05/17 01:19:51;;;;;;;3.45;2.10;;;;;20.70;101232.00;;;;2075012;28;20268;-49
2023/05/17 01:20:51;;;;;;;2.45;1.80;;;;;20.70;101229.00;;;;2076519;28;20316;-50
2023/05/17 01:21:58;;;;;;;3.63;2.07;;;;;20.70;101231.00;;;;2077171;28;20210;-50
2023/05/17 01:23:17;;;;;;;2.47;1.63;;;;;20.70;101241.00;;;;2063905;28;20905;-50
2023/05/17 01:24:26;;;;;;;2.55;1.75;;;;;20.70;101237.00;;;;2070353;28;20222;-52
2023/05/17 01:25:26;;;;;;;2.33;1.92;;;;;20.70;101241.00;;;;2074600;28;20228;-51
2023/05/17 01:26:35;;;;;;;3.60;2.10;;;;;20.70;101235.00;;;;2075172;28;20218;-51
2023/05/17 01:27:36;;;;;;;2.15;1.40;;;;;20.70;101239.00;;;;2067954;28;20252;-51
2023/05/17 01:28:37;;;;;;;3.77;2.07;;;;;20.70;101244.00;;;;2084606;28;21012;-49
2023/05/17 01:29:37;;;;;;;2.45;1.63;;;;;20.70;101238.00;;;;2076013;28;20295;-52
2023/05/17 01:30:37;;;;;;;2.97;1.60;;;;;20.70;101230.00;;;;2073921;28;21090;-52
2023/05/17 01:31:38;;;;;;;3.43;1.90;;;;;20.70;101237.00;;;;2065496;28;20645;-52
2023/05/17 01:32:41;;;;;;;2.80;1.70;;;;;20.70;101239.00;;;;2071726;28;20331;-52
2023/05/17 01:33:42;;;;;;;2.70;1.80;;;;;20.70;101234.00;;;;2074945;28;21012;-52
2023/05/17 01:34:42;;;;;;;2.83;1.50;;;;;20.70;101239.00;;;;2072665;28;20205;-52
2023/05/17 01:35:42;;;;;;;2.90;1.80;;;;;20.70;101237.00;;;;2087735;28;20216;-49
2023/05/17 01:36:43;;;;;;;2.10;1.60;;;;;20.70;101241.00;;;;2080081;28;20569;-49
2023/05/17 01:37:44;;;;;;;2.40;1.90;;;;;20.70;101243.00;;;;2066170;28;20665;-52
2023/05/17 01:38:44;;;;;;;2.77;1.80;;;;;20.70;101241.00;;;;2069264;28;20212;-56
2023/05/17 01:39:45;;;;;;;2.90;1.90;;;;;20.70;101241.00;;;;2082012;28;20216;-55
2023/05/17 01:40:57;;;;;;;2.17;1.50;;;;;20.70;101237.00;;;;2079036;28;20302;-51
2023/05/17 01:42:14;;;;;;;3.05;1.90;;;;;20.60;101241.00;;;;2067935;28;20297;-52
2023/05/17 01:43:22;;;;;;;2.85;1.95;;;;;20.70;101237.00;;;;2075387;28;20248;-52
2023/05/17 01:44:47;;;;;;;2.50;1.45;;;;;20.60;101238.00;;;;2069784;28;20214;-52
2023/05/17 01:46:02;;;;;;;3.60;2.03;;;;;20.60;101240.00;;;;2076070;28;20218;-50
2023/05/17 01:47:26;;;;;;;3.25;1.55;;;;;20.60;101243.00;;;;2064653;28;20256;-52
2023/05/17 01:48:35;;;;;;;2.60;1.83;;;;;20.60;101244.00;;;;2074356;28;20221;-52
2023/05/17 01:49:37;;;;;;;2.33;1.88;;;;;20.60;101247.00;;;;2067575;28;20218;-49
2023/05/17 01:50:37;;;;;;;3.30;2.03;;;;;20.60;101253.00;;;;2073389;28;20225;-51
2023/05/17 01:51:45;;;;;;;2.90;1.93;;;;;20.60;101246.00;;;;2068844;28;20617;-49
2023/05/17 01:52:53;;;;;;;2.60;1.75;;;;;20.60;101252.00;;;;2062098;28;20212;-51
2023/05/17 01:53:56;;;;;;;3.85;1.80;;;;;20.60;101248.00;;;;2073922;28;20201;-51
2023/05/17 01:55:04;;;;;;;4.28;2.05;;;;;20.60;101248.00;;;;2081197;28;20213;-52
2023/05/17 01:56:09;;;;;;;3.40;2.13;;;;;20.60;101248.00;;;;2077818;28;20233;-51
2023/05/17 01:57:10;;;;;;;2.65;1.70;;;;;20.60;101252.00;;;;2071752;28;20291;-50
2023/05/17 01:58:10;;;;;;;3.60;1.80;;;;;20.60;101250.00;;;;2059686;28;20307;-51
2023/05/17 01:59:10;;;;;;;3.13;2.03;;;;;20.60;101254.00;;;;2064032;28;20374;-49
2023/05/17 02:00:11;;;;;;;4.07;2.00;;;;;20.60;101260.00;;;;2048546;28;20231;-50
2023/05/17 02:01:12;;;;;;;2.67;1.65;;;;;20.60;101246.00;;;;2067049;28;20246;-52
2023/05/17 02:02:12;;;;;;;2.53;1.60;;;;;20.60;101250.00;;;;2062416;28;20658;-50
2023/05/17 02:03:17;;;;;;;2.53;1.70;;;;;20.60;101253.00;;;;2075288;28;20308;-52
2023/05/17 02:04:17;;;;;;;2.13;1.70;;;;;20.60;101254.00;;;;2069671;28;20738;-51
2023/05/17 02:05:17;;;;;;;2.80;1.70;;;;;20.60;101246.00;;;;2067524;28;20229;-52
2023/05/17 02:06:18;;;;;;;3.13;1.90;;;;;20.60;101247.00;;;;2084612;28;20795;-52
2023/05/17 02:07:18;;;;;;;3.73;1.73;;;;;20.60;101250.00;;;;2068047;28;20220;-52
2023/05/17 02:08:18;;;;;;;3.33;1.90;;;;;20.60;101251.00;;;;2092636;28;20208;-48
2023/05/17 02:09:19;;;;;;;2.97;2.00;;;;;20.60;101246.00;;;;2083773;28;20269;-49
2023/05/17 02:10:19;;;;;;;3.67;1.93;;;;;20.60;101248.00;;;;2077258;28;20228;-51
2023/05/17 02:11:19;;;;;;;3.20;1.73;;;;;20.60;101250.00;;;;2068996;28;20210;-52
2023/05/17 02:12:20;;;;;;;3.47;1.90;;;;;20.60;101256.00;;;;2070191;28;20344;-51
2023/05/17 02:13:20;;;;;;;3.10;1.77;;;;;20.60;101246.00;;;;2092967;28;20265;-52
2023/05/17 02:14:20;;;;;;;3.17;2.10;;;;;20.60;101187.00;;;;2081783;28;20624;-52
2023/05/17 02:15:21;;;;;;;2.57;1.60;;;;;20.60;101246.00;;;;2077118;28;20585;-49
2023/05/17 02:16:21;;;;;;;3.50;1.97;;;;;20.60;101247.00;;;;2069277;28;20217;-48
2023/05/17 02:17:21;;;;;;;3.37;1.97;;;;;20.60;101250.00;;;;2068000;28;20233;-50
2023/05/17 02:18:22;;;;;;;2.53;1.60;;;;;20.60;101249.00;;;;2091713;28;20274;-51
2023/05/17 02:19:22;;;;;;;4.03;2.10;;;;;20.60;101242.00;;;;2081817;28;20221;-52
2023/05/17 02:20:22;;;;;;;3.40;1.70;;;;;20.60;101248.00;;;;2077010;28;20222;-51
2023/05/17 02:21:23;;;;;;;2.70;1.80;;;;;20.60;101234.00;;;;2075858;28;20547;-52
2023/05/17 02:22:23;;;;;;;4.23;1.60;;;;;20.60;101233.00;;;;2070146;28;20274;-49
2023/05/17 02:23:23;;;;;;;3.07;1.70;;;;;20.60;101241.00;;;;2084891;28;20209;-50
2023/05/17 02:24:24;;;;;;;3.10;2.50;;;;;20.60;101254.00;;;;2079778;28;20233;-50
2023/05/17 02:25:24;;;;;;;3.77;2.10;;;;;20.60;101244.00;;;;2079903;28;20292;-52
2023/05/17 02:26:26;;;;;;;2.55;1.48;;;;;20.60;101253.00;;;;2080879;28;20267;-51
2023/05/17 02:27:26;;;;;;;3.10;2.13;;;;;20.60;101260.00;;;;2074994;28;20229;-52
2023/05/17 02:28:27;;;;;;;2.83;1.63;;;;;20.60;101272.00;;;;2075107;28;20219;-51
2023/05/17 02:29:27;;;;;;;3.63;2.10;;;;;20.60;101265.00;;;;2069508;28;20222;-51
2023/05/17 02:30:27;;;;;;;3.00;1.90;;;;;20.30;101258.00;;;;2078680;28;20290;-50
2023/05/17 02:31:28;;;;;;;4.50;2.10;;;;;20.60;101266.00;;;;2076698;28;20217;-49
2023/05/17 02:32:30;;;;;;;3.47;1.93;;;;;20.60;101263.00;;;;2074992;28;20302;-52
2023/05/17 02:33:31;;;;;;;2.70;1.67;;;;;20.60;101259.00;;;;2077060;28;20214;-50
2023/05/17 02:34:31;;;;;;;3.20;1.77;;;;;20.60;101265.00;;;;2083828;28;20268;-51
2023/05/17 02:35:31;;;;;;;3.77;2.00;;;;;20.60;101268.00;;;;2077313;28;20271;-49
2023/05/17 02:36:32;;;;;;;3.77;1.93;;;;;20.60;101258.00;;;;2078310;28;20228;-49
2023/05/17 02:37:32;;;;;;;3.00;1.50;;;;;20.60;101260.00;;;;2069075;28;20776;-49
2023/05/17 02:38:32;;;;;;;3.90;2.03;;;;;20.50;101264.00;;;;2076813;28;20716;-50
2023/05/17 02:39:33;;;;;;;2.73;1.93;;;;;20.50;101257.00;;;;2081696;28;20266;-50
2023/05/17 02:40:33;;;;;;;3.57;1.63;;;;;20.50;101261.00;;;;2077270;28;20256;-51
2023/05/17 02:41:33;;;;;;;2.80;1.87;;;;;20.50;101268.00;;;;2081488;28;20245;-51
2023/05/17 02:42:34;;;;;;;4.53;2.10;;;;;20.50;101289.00;;;;2072716;28;20225;-52
2023/05/17 02:43:35;;;;;;;3.33;1.80;;;;;20.50;101262.00;;;;2074828;28;20210;-51
2023/05/17 02:44:35;;;;;;;3.60;1.90;;;;;20.50;101274.00;;;;2083190;28;20225;-51
2023/05/17 02:45:35;;;;;;;4.13;2.20;;;;;20.60;101269.00;;;;2080694;28;20269;-51
2023/05/17 02:46:36;;;;;;;3.00;1.60;;;;;20.50;101257.00;;;;2078282;28;20221;-52
2023/05/17 02:47:36;;;;;;;2.67;1.63;;;;;20.50;101265.00;;;;2064941;28;20221;-52
2023/05/17 02:48:36;;;;;;;2.93;1.60;;;;;20.50;101266.00;;;;2072192;28;20220;-52
2023/05/17 02:49:37;;;;;;;2.30;1.70;;;;;20.50;101263.00;;;;2083553;28;20212;-48
2023/05/17 02:50:37;;;;;;;3.90;2.00;;;;;20.50;101258.00;;;;2077885;28;20246;-50
2023/05/17 02:51:37;;;;;;;3.57;1.67;;;;;20.50;101265.00;;;;2078651;28;20271;-50
2023/05/17 02:52:38;;;;;;;3.20;1.83;;;;;20.50;101279.00;;;;2072782;28;20236;-50
2023/05/17 02:53:38;;;;;;;3.77;1.73;;;;;20.50;101273.00;;;;2084609;28;20204;-51
2023/05/17 02:54:38;;;;;;;3.00;1.77;;;;;20.50;101277.00;;;;2079844;28;20213;-49
2023/05/17 02:55:39;;;;;;;2.87;2.03;;;;;20.50;101282.00;;;;2078081;28;20217;-51
2023/05/17 02:56:39;;;;;;;2.20;1.50;;;;;20.50;101276.00;;;;2074948;28;20256;-48
2023/05/17 02:57:40;;;;;;;4.07;1.67;;;;;20.50;101275.00;;;;2072356;28;20223;-52
2023/05/17 02:58:40;;;;;;;2.90;2.23;;;;;20.50;101276.00;;;;2090635;28;20579;-52
2023/05/17 02:59:40;;;;;;;2.67;1.60;;;;;20.50;101282.00;;;;2075941;28;20217;-52
2023/05/17 03:00:45;;;;;;;3.33;1.90;;;;;20.50;101282.00;;;;2073073;28;20221;-51
2023/05/17 03:01:45;;;;;;;3.05;1.88;;;;;20.50;101286.00;;;;2081279;28;20217;-52
2023/05/17 03:02:45;;;;;;;3.30;1.97;;;;;20.50;101268.00;;;;2075377;28;20219;-52
2023/05/17 03:03:46;;;;;;;3.13;1.90;;;;;20.50;101280.00;;;;2089692;28;20213;-50
2023/05/17 03:04:46;;;;;;;3.97;2.10;;;;;20.50;101277.00;;;;2071431;28;22306;-56
2023/05/17 03:05:46;;;;;;;3.13;1.70;;;;;20.50;101280.00;;;;2076573;28;20276;-55
2023/05/17 03:06:47;;;;;;;3.10;1.60;;;;;20.50;101280.00;;;;2082625;28;20205;-50
2023/05/17 03:07:47;;;;;;;4.97;1.90;;;;;20.50;101283.00;;;;2076105;28;20232;-48
2023/05/17 03:08:47;;;;;;;3.00;2.03;;;;;20.50;101278.00;;;;2088361;28;20217;-50
2023/05/17 03:09:48;;;;;;;4.90;2.00;;;;;20.50;101275.00;;;;2072124;28;20213;-50
2023/05/17 03:10:48;;;;;;;4.43;1.90;;;;;20.50;101278.00;;;;2074428;28;20213;-52
2023/05/17 03:11:48;;;;;;;3.63;1.80;;;;;20.50;101284.00;;;;2078933;28;20266;-49
2023/05/17 03:12:48;;;;;;;4.30;2.00;;;;;20.50;101279.00;;;;2076233;28;20213;-52
2023/05/17 03:13:50;;;;;;;2.83;1.53;;;;;20.50;101289.00;;;;2088215;28;20350;-51
2023/05/17 03:14:50;;;;;;;2.10;1.55;;;;;20.50;101282.00;;;;2079493;28;20228;-50
2023/05/17 03:15:51;;;;;;;2.97;1.80;;;;;20.50;101294.00;;;;2073828;28;20214;-51
2023/05/17 03:16:51;;;;;;;3.17;1.90;;;;;20.50;101285.00;;;;2073779;28;20210;-52
2023/05/17 03:17:51;;;;;;;2.63;1.90;;;;;20.50;101288.00;;;;2072742;28;20217;-53
2023/05/17 03:18:52;;;;;;;2.60;1.87;;;;;20.50;101285.00;;;;2086804;28;20228;-53
2023/05/17 03:19:52;;;;;;;2.57;1.67;;;;;20.40;101280.00;;;;2084985;28;20620;-50
2023/05/17 03:20:52;;;;;;;3.20;1.80;;;;;20.50;101289.00;;;;2074442;28;20209;-51
2023/05/17 03:21:53;;;;;;;5.20;2.30;;;;;20.50;101292.00;;;;2075970;28;20217;-49
2023/05/17 03:22:53;;;;;;;2.60;1.70;;;;;20.50;101296.00;;;;2072772;28;20212;-51
2023/05/17 03:23:53;;;;;;;3.10;1.87;;;;;20.50;101293.00;;;;2087398;28;20231;-52
2023/05/17 03:24:54;;;;;;;2.33;1.90;;;;;20.40;101291.00;;;;2084791;28;20300;-52
2023/05/17 03:25:54;;;;;;;3.00;2.00;;;;;20.50;101292.00;;;;2075990;28;20288;-52
2023/05/17 03:26:55;;;;;;;3.90;2.00;;;;;20.50;101291.00;;;;2076807;28;20263;-51
2023/05/17 03:27:55;;;;;;;4.13;2.37;;;;;20.50;101290.00;;;;2066888;28;20686;-50
2023/05/17 03:28:55;;;;;;;3.90;1.73;;;;;20.50;101298.00;;;;2076447;28;20252;-50
2023/05/17 03:29:56;;;;;;;3.20;1.90;;;;;20.50;101292.00;;;;2079297;28;20205;-51
2023/05/17 03:30:56;;;;;;;4.43;2.20;;;;;20.50;101292.00;;;;2078551;28;20688;-52
2023/05/17 03:31:56;;;;;;;2.87;1.80;;;;;20.50;101294.00;;;;2078941;28;20936;-50
2023/05/17 03:32:57;;;;;;;2.80;1.63;;;;;20.50;101304.00;;;;2075202;28;20751;-50
2023/05/17 03:33:57;;;;;;;1.90;1.60;;;;;20.50;101293.00;;;;2088541;28;21060;-51
2023/05/17 03:34:57;;;;;;;3.50;1.80;;;;;20.50;101301.00;;;;2080738;28;20748;-48
2023/05/17 03:35:58;;;;;;;4.17;1.70;;;;;20.40;101298.00;;;;2080837;28;20212;-50
2023/05/17 03:36:59;;;;;;;4.33;2.40;;;;;20.40;101299.00;;;;2077058;28;20911;-52
2023/05/17 03:37:59;;;;;;;3.25;1.95;;;;;20.50;101293.00;;;;2065880;28;20210;-52
2023/05/17 03:39:00;;;;;;;3.50;2.00;;;;;20.40;101305.00;;;;2075796;28;20205;-49
2023/05/17 03:40:00;;;;;;;2.57;1.77;;;;;20.40;101294.00;;;;2076140;28;20213;-51
2023/05/17 03:41:00;;;;;;;2.00;1.57;;;;;20.40;101295.00;;;;2080796;28;20201;-52
2023/05/17 03:42:01;;;;;;;4.73;2.00;;;;;20.50;101305.00;;;;2075599;28;20202;-52
2023/05/17 03:43:01;;;;;;;2.97;2.00;;;;;20.50;101302.00;;;;2066441;28;20297;-52
2023/05/17 03:44:01;;;;;;;4.63;1.90;;;;;20.40;101303.00;;;;2083390;28;20288;-52
2023/05/17 03:45:03;;;;;;;3.57;1.90;;;;;20.40;101306.00;;;;2076190;28;20206;-52
2023/05/17 03:46:03;;;;;;;1.95;1.52;;;;;20.40;101304.00;;;;2079624;28;20254;-52
2023/05/17 03:47:03;;;;;;;3.37;2.10;;;;;20.40;101306.00;;;;2070183;28;20206;-54
2023/05/17 03:48:04;;;;;;;2.47;1.90;;;;;20.40;101302.00;;;;2087354;28;20197;-52
2023/05/17 03:49:04;;;;;;;3.73;2.20;;;;;20.40;101306.00;;;;2091092;28;20211;-50
2023/05/17 03:50:05;;;;;;;4.93;2.40;;;;;20.40;101310.00;;;;2080830;28;20316;-51
2023/05/17 03:51:05;;;;;;;2.70;2.00;;;;;20.40;101302.00;;;;2079992;28;20713;-51
2023/05/17 03:52:06;;;;;;;6.27;2.00;;;;;20.40;101306.00;;;;2066520;28;20680;-52
2023/05/17 03:53:06;;;;;;;2.87;2.10;;;;;20.40;101306.00;;;;2068912;28;20338;-52
2023/05/17 03:54:07;;;;;;;3.83;1.90;;;;;20.40;101306.00;;;;2072057;28;20346;-50
2023/05/17 03:55:08;;;;;;;4.50;2.23;;;;;20.40;101306.00;;;;2068597;28;20225;-49
2023/05/17 03:56:09;;;;;;;6.00;2.53;;;;;20.40;101312.00;;;;2074711;28;20232;-52
2023/05/17 03:57:09;;;;;;;5.72;2.10;;;;;20.40;101312.00;;;;2065682;28;20221;-52
2023/05/17 03:58:10;;;;;;;3.87;2.10;;;;;20.40;101314.00;;;;2079283;28;20224;-51
2023/05/17 03:59:10;;;;;;;2.60;1.90;;;;;20.40;101307.00;;;;2074384;28;20400;-52
2023/05/17 04:00:11;;;;;;;2.80;2.27;;;;;20.40;101313.00;;;;2070348;28;20214;-52
2023/05/17 04:01:11;;;;;;;2.70;1.77;;;;;20.40;101308.00;;;;2073868;28;20216;-49
2023/05/17 04:02:14;;;;;;;5.03;2.50;;;;;20.40;101312.00;;;;2070365;28;20469;-49
2023/05/17 04:03:14;;;;;;;3.80;1.92;;;;;20.40;101311.00;;;;2090766;28;20686;-52
2023/05/17 04:04:15;;;;;;;3.13;1.80;;;;;20.40;101306.00;;;;2083542;28;20267;-52
2023/05/17 04:05:15;;;;;;;3.03;2.20;;;;;20.40;101310.00;;;;2070197;28;20397;-50
2023/05/17 04:06:16;;;;;;;3.20;2.07;;;;;20.40;101316.00;;;;2072086;28;20221;-52
2023/05/17 04:07:16;;;;;;;3.77;2.20;;;;;20.40;101315.00;;;;2070980;28;20280;-52
2023/05/17 04:08:16;;;;;;;3.53;1.97;;;;;20.30;101320.00;;;;2082191;28;20247;-52
2023/05/17 04:09:17;;;;;;;3.90;2.03;;;;;20.40;101324.00;;;;2075033;28;20225;-50
2023/05/17 04:10:17;;;;;;;3.77;2.07;;;;;20.40;101329.00;;;;2076218;28;20233;-51
2023/05/17 04:11:22;;;;;;;4.50;2.10;;;;;20.40;101327.00;;;;2075227;28;20221;-49
2023/05/17 04:12:22;;;;;;;3.55;1.95;;;;;20.40;101324.00;;;;2071145;28;20724;-52
2023/05/17 04:13:23;;;;;;;8.10;2.40;;;;;20.40;101320.00;;;;2089271;28;20216;-52
2023/05/17 04:14:23;;;;;;;3.23;2.23;;;;;20.40;101331.00;;;;2090937;28;20217;-52
2023/05/17 04:15:24;;;;;;;2.97;1.70;;;;;20.40;101330.00;;;;2082063;28;20610;-50
2023/05/17 04:16:24;;;;;;;5.50;2.10;;;;;20.40;101333.00;;;;2077708;28;20225;-50
2023/05/17 04:17:24;;;;;;;3.20;2.07;;;;;20.40;101335.00;;;;2070432;28;20324;-51
2023/05/17 04:18:25;;;;;;;4.37;2.00;;;;;20.40;101271.00;;;;2086287;28;20217;-52
2023/05/17 04:19:25;;;;;;;4.23;2.10;;;;;20.40;101334.00;;;;2090374;28;20628;-51
2023/05/17 04:20:25;;;;;;;4.80;2.23;;;;;20.40;101337.00;;;;2078921;28;20596;-52
2023/05/17 04:21:26;;;;;;;3.30;1.80;;;;;20.40;101345.00;;;;2077862;28;20220;-51
2023/05/17 04:22:26;;;;;;;3.30;1.90;;;;;20.40;101338.00;;;;2070044;28;20221;-51
2023/05/17 04:23:26;;;;;;;2.80;2.10;;;;;20.40;101347.00;;;;2080266;28;20221;-51
2023/05/17 04:24:27;;;;;;;2.50;1.80;;;;;20.10;101364.00;;;;2082946;28;20214;-51
2023/05/17 04:25:27;;;;;;;2.70;2.10;;;;;20.40;101344.00;;;;2076253;28;20221;-51
2023/05/17 04:26:27;;;;;;;2.90;2.00;;;;;20.40;101337.00;;;;2084372;28;20719;-51
2023/05/17 04:27:28;;;;;;;2.60;2.20;;;;;20.40;101350.00;;;;2069902;28;20303;-50
2023/05/17 04:28:28;;;;;;;3.93;2.37;;;;;20.40;101363.00;;;;2088775;28;20747;-51
2023/05/17 04:29:29;;;;;;;3.60;2.03;;;;;20.40;101349.00;;;;2089940;28;20708;-50
2023/05/17 04:30:29;;;;;;;4.07;2.40;;;;;20.40;101342.00;;;;2077265;28;20820;-50
2023/05/17 04:31:30;;;;;;;2.60;1.80;;;;;20.40;101348.00;;;;2082774;28;20225;-50
2023/05/17 04:32:32;;;;;;;5.40;2.20;;;;;20.20;101350.00;;;;2070843;28;20952;-51
2023/05/17 04:33:33;;;;;;;5.20;2.10;;;;;20.40;101345.00;;;;2087694;28;20279;-50
2023/05/17 04:34:33;;;;;;;6.63;2.20;;;;;20.50;101346.00;;;;2085806;28;20287;-51
2023/05/17 04:35:35;;;;;;;4.37;2.30;;;;;20.50;101345.00;;;;2086287;28;20213;-51
2023/05/17 04:36:35;;;;;;;7.28;2.65;;;;;20.50;101343.00;;;;2082326;28;20812;-51
2023/05/17 04:37:38;;;;;;;5.83;1.73;;;;;20.50;101343.00;;;;2071745;28;20299;-51
2023/05/17 04:38:39;;;;;;;3.92;2.20;;;;;20.50;101339.00;;;;2080154;28;20252;-52
2023/05/17 04:39:39;;;;;;;5.20;2.40;;;;;20.50;101345.00;;;;2085492;28;20232;-51
2023/05/17 04:40:40;;;;;;;3.40;2.10;;;;;20.50;101338.00;;;;2085540;28;20661;-53
2023/05/17 04:41:40;;;;;;;3.03;2.10;;;;;20.50;101345.00;;;;2080461;28;20221;-52
2023/05/17 04:42:40;;;;;;;3.97;2.30;;;;;20.50;101342.00;;;;2071768;28;20217;-50
2023/05/17 04:43:41;;;;;;;5.37;1.90;;;;;20.50;101347.00;;;;2085494;28;20216;-51
2023/05/17 04:44:41;;;;;;;3.53;1.90;;;;;20.50;101350.00;;;;2079821;28;20220;-51
2023/05/17 04:45:41;;;;;;;7.87;3.00;;;;;20.50;101345.00;;;;2076042;28;20228;-51
2023/05/17 04:46:42;;;;;;;8.47;3.00;;;;;20.50;101359.00;;;;2076346;28;20214;-52
2023/05/17 04:47:43;;;;;;;6.85;3.40;;;;;20.40;101350.00;;;;2074377;28;20235;-50
2023/05/17 04:48:43;;;;;;;7.00;3.13;;;;;20.40;101352.00;;;;2091571;28;20238;-50
2023/05/17 04:49:43;;;;;;;8.30;3.57;;;;;20.40;101362.00;;;;2079114;28;20218;-50
2023/05/17 04:50:45;;;;;;;4.97;2.70;;;;;20.40;101363.00;;;;2077339;28;20228;-50
2023/05/17 04:51:45;;;;;;;5.55;3.00;;;;;20.40;101369.00;;;;2079472;28;20698;-50
2023/05/17 04:52:45;;;;;;;5.47;3.30;;;;;20.40;101370.00;;;;2072780;28;20234;-50
2023/05/17 04:53:46;;;;;;;4.90;3.13;;;;;20.30;101366.00;;;;2082071;28;20989;-50
2023/05/17 04:54:46;;;;;;;4.23;3.10;;;;;20.40;101370.00;;;;2076548;28;20315;-50
2023/05/17 04:55:47;;;;;;;4.07;2.80;;;;;20.30;101365.00;;;;2078093;28;20221;-50
2023/05/17 04:56:48;;;;;;;5.80;3.27;;;;;20.30;101364.00;;;;2076725;28;20288;-50
2023/05/17 04:57:48;;;;;;;5.83;3.20;;;;;20.30;101370.00;;;;2070715;28;20511;-50
2023/05/17 04:58:48;;;;;;;5.93;3.43;;;;;20.30;101369.00;;;;2079787;28;20216;-53
2023/05/17 04:59:49;;;;;;;5.03;3.20;;;;;20.30;101374.00;;;;2080046;28;20221;-51
2023/05/17 05:00:50;;;;;;;4.60;3.27;;;;;20.20;101378.00;;;;2082088;28;20212;-51
2023/05/17 05:01:50;;;;;;;6.28;3.20;;;;;20.30;101379.00;;;;2078015;28;20921;-50
2023/05/17 05:02:50;;;;;;;8.77;3.50;;;;;20.30;101381.00;;;;2068154;28;20305;-51
2023/05/17 05:03:51;;;;;;;8.63;3.43;;;;;20.20;101383.00;;;;2070431;28;20239;-51